sensor_id;sensor_type;location;lat;lon;timestamp;P1;durP1;ratioP1;P2;durP2;ratioP2
24259;SDS011;12384;48.112;18.418;2023-03-23T00:02:08;17.40;;;15.97;;
24259;SDS011;12384;48.112;18.418;2023-03-23T00:04:36;17.07;;;15.67;;
24259;SDS011;12384;48.112;18.418;2023-03-23T00:07:03;19.67;;;17.87;;
24259;SDS011;12384;48.112;18.418;2023-03-23T00:09:32;17.83;;;16.33;;
24259;SDS011;12384;48.112;18.418;2023-03-23T00:11:59;16.90;;;15.53;;
24259;SDS011;12384;48.112;18.418;2023-03-23T00:14:31;17.53;;;16.03;;
24259;SDS011;12384;48.112;18.418;2023-03-23T00:17:06;16.87;;;15.57;;
24259;SDS011;12384;48.112;18.418;2023-03-23T00:19:36;17.93;;;16.47;;
24259;SDS011;12384;48.112;18.418;2023-03-23T00:22:12;18.00;;;16.40;;
24259;SDS011;12384;48.112;18.418;2023-03-23T00:24:42;18.47;;;16.90;;
24259;SDS011;12384;48.112;18.418;2023-03-23T00:27:10;17.27;;;15.77;;
24259;SDS011;12384;48.112;18.418;2023-03-23T00:29:41;16.97;;;15.57;;
24259;SDS011;12384;48.112;18.418;2023-03-23T00:32:10;16.97;;;15.67;;
24259;SDS011;12384;48.112;18.418;2023-03-23T00:34:40;17.17;;;15.77;;
24259;SDS011;12384;48.112;18.418;2023-03-23T00:37:09;17.93;;;16.43;;
24259;SDS011;12384;48.112;18.418;2023-03-23T00:39:37;17.33;;;15.90;;
24259;SDS011;12384;48.112;18.418;2023-03-23T00:42:13;17.33;;;15.90;;
24259;SDS011;12384;48.112;18.418;2023-03-23T00:44:42;16.93;;;15.60;;
24259;SDS011;12384;48.112;18.418;2023-03-23T00:47:10;17.30;;;15.90;;
24259;SDS011;12384;48.112;18.418;2023-03-23T00:49:38;16.83;;;15.43;;
24259;SDS011;12384;48.112;18.418;2023-03-23T00:52:06;17.10;;;15.70;;
24259;SDS011;12384;48.112;18.418;2023-03-23T00:54:34;17.20;;;15.60;;
24259;SDS011;12384;48.112;18.418;2023-03-23T00:57:03;16.70;;;15.37;;
24259;SDS011;12384;48.112;18.418;2023-03-23T00:59:33;17.10;;;15.80;;
24259;SDS011;12384;48.112;18.418;2023-03-23T01:02:00;17.37;;;15.77;;
24259;SDS011;12384;48.112;18.418;2023-03-23T01:04:28;17.23;;;15.83;;
24259;SDS011;12384;48.112;18.418;2023-03-23T01:06:57;18.10;;;16.43;;
24259;SDS011;12384;48.112;18.418;2023-03-23T01:09:26;18.23;;;16.63;;
24259;SDS011;12384;48.112;18.418;2023-03-23T01:11:53;17.97;;;16.47;;
24259;SDS011;12384;48.112;18.418;2023-03-23T01:14:22;17.60;;;16.10;;
24259;SDS011;12384;48.112;18.418;2023-03-23T01:16:52;17.67;;;16.13;;
24259;SDS011;12384;48.112;18.418;2023-03-23T01:19:19;17.60;;;16.10;;
24259;SDS011;12384;48.112;18.418;2023-03-23T01:21:47;17.20;;;15.80;;
24259;SDS011;12384;48.112;18.418;2023-03-23T01:24:14;17.27;;;15.87;;
24259;SDS011;12384;48.112;18.418;2023-03-23T01:26:42;16.80;;;15.20;;
24259;SDS011;12384;48.112;18.418;2023-03-23T01:29:09;17.87;;;16.33;;
24259;SDS011;12384;48.112;18.418;2023-03-23T01:31:37;17.37;;;15.97;;
24259;SDS011;12384;48.112;18.418;2023-03-23T01:34:07;18.27;;;16.67;;
24259;SDS011;12384;48.112;18.418;2023-03-23T01:36:37;17.13;;;15.63;;
24259;SDS011;12384;48.112;18.418;2023-03-23T01:39:05;16.70;;;15.33;;
24259;SDS011;12384;48.112;18.418;2023-03-23T01:41:33;17.67;;;16.27;;
24259;SDS011;12384;48.112;18.418;2023-03-23T01:44:59;16.77;;;15.43;;
24259;SDS011;12384;48.112;18.418;2023-03-23T01:47:20;17.37;;;15.70;;
24259;SDS011;12384;48.112;18.418;2023-03-23T01:49:54;16.87;;;15.47;;
24259;SDS011;12384;48.112;18.418;2023-03-23T01:52:23;16.90;;;15.60;;
24259;SDS011;12384;48.112;18.418;2023-03-23T01:54:59;16.87;;;15.47;;
24259;SDS011;12384;48.112;18.418;2023-03-23T01:57:27;17.33;;;15.83;;
24259;SDS011;12384;48.112;18.418;2023-03-23T01:59:58;17.93;;;16.40;;
24259;SDS011;12384;48.112;18.418;2023-03-23T02:02:51;17.07;;;15.53;;
24259;SDS011;12384;48.112;18.418;2023-03-23T02:05:26;16.40;;;14.93;;
24259;SDS011;12384;48.112;18.418;2023-03-23T02:08:03;16.70;;;15.30;;
24259;SDS011;12384;48.112;18.418;2023-03-23T02:10:34;17.10;;;15.53;;
24259;SDS011;12384;48.112;18.418;2023-03-23T02:13:03;17.07;;;15.57;;
24259;SDS011;12384;48.112;18.418;2023-03-23T02:15:34;17.70;;;16.20;;
24259;SDS011;12384;48.112;18.418;2023-03-23T02:18:19;16.43;;;15.23;;
24259;SDS011;12384;48.112;18.418;2023-03-23T02:27:28;16.93;;;15.50;;
24259;SDS011;12384;48.112;18.418;2023-03-23T02:30:21;15.70;;;14.43;;
24259;SDS011;12384;48.112;18.418;2023-03-23T02:33:17;17.30;;;15.80;;
24259;SDS011;12384;48.112;18.418;2023-03-23T02:35:56;17.47;;;15.97;;
24259;SDS011;12384;48.112;18.418;2023-03-23T02:38:30;16.23;;;14.80;;
24259;SDS011;12384;48.112;18.418;2023-03-23T02:41:02;17.20;;;15.80;;
24259;SDS011;12384;48.112;18.418;2023-03-23T02:43:33;17.47;;;16.00;;
24259;SDS011;12384;48.112;18.418;2023-03-23T02:46:08;17.00;;;15.50;;
24259;SDS011;12384;48.112;18.418;2023-03-23T02:48:39;16.60;;;15.30;;
24259;SDS011;12384;48.112;18.418;2023-03-23T02:51:09;15.70;;;14.50;;
24259;SDS011;12384;48.112;18.418;2023-03-23T02:53:40;17.30;;;15.80;;
24259;SDS011;12384;48.112;18.418;2023-03-23T02:56:09;16.20;;;14.90;;
24259;SDS011;12384;48.112;18.418;2023-03-23T02:58:39;16.97;;;15.57;;
24259;SDS011;12384;48.112;18.418;2023-03-23T03:04:16;15.90;;;14.50;;
24259;SDS011;12384;48.112;18.418;2023-03-23T03:06:47;16.50;;;15.13;;
24259;SDS011;12384;48.112;18.418;2023-03-23T03:09:24;15.23;;;13.93;;
24259;SDS011;12384;48.112;18.418;2023-03-23T03:11:58;15.80;;;14.43;;
24259;SDS011;12384;48.112;18.418;2023-03-23T03:14:33;16.23;;;14.73;;
24259;SDS011;12384;48.112;18.418;2023-03-23T03:17:08;17.83;;;16.03;;
24259;SDS011;12384;48.112;18.418;2023-03-23T03:19:42;16.53;;;15.00;;
24259;SDS011;12384;48.112;18.418;2023-03-23T03:22:13;16.50;;;15.10;;
24259;SDS011;12384;48.112;18.418;2023-03-23T03:24:42;16.00;;;14.60;;
24259;SDS011;12384;48.112;18.418;2023-03-23T03:27:12;16.87;;;15.37;;
24259;SDS011;12384;48.112;18.418;2023-03-23T03:29:47;16.60;;;15.27;;
24259;SDS011;12384;48.112;18.418;2023-03-23T03:32:21;15.90;;;14.50;;
24259;SDS011;12384;48.112;18.418;2023-03-23T03:34:53;17.57;;;16.07;;
24259;SDS011;12384;48.112;18.418;2023-03-23T03:37:20;17.10;;;15.50;;
24259;SDS011;12384;48.112;18.418;2023-03-23T03:39:49;17.00;;;15.60;;
24259;SDS011;12384;48.112;18.418;2023-03-23T03:42:17;17.47;;;15.97;;
24259;SDS011;12384;48.112;18.418;2023-03-23T03:44:45;16.80;;;15.30;;
24259;SDS011;12384;48.112;18.418;2023-03-23T03:47:12;17.23;;;15.73;;
24259;SDS011;12384;48.112;18.418;2023-03-23T03:49:39;16.80;;;15.30;;
24259;SDS011;12384;48.112;18.418;2023-03-23T03:52:08;15.17;;;13.87;;
24259;SDS011;12384;48.112;18.418;2023-03-23T03:54:40;15.60;;;14.40;;
24259;SDS011;12384;48.112;18.418;2023-03-23T03:57:09;15.87;;;14.57;;
24259;SDS011;12384;48.112;18.418;2023-03-23T04:00:10;16.27;;;14.80;;
24259;SDS011;12384;48.112;18.418;2023-03-23T04:02:40;17.17;;;15.77;;
24259;SDS011;12384;48.112;18.418;2023-03-23T04:05:10;17.50;;;16.00;;
24259;SDS011;12384;48.112;18.418;2023-03-23T04:07:44;16.87;;;15.37;;
24259;SDS011;12384;48.112;18.418;2023-03-23T04:10:15;17.57;;;15.97;;
24259;SDS011;12384;48.112;18.418;2023-03-23T04:12:45;17.50;;;16.10;;
24259;SDS011;12384;48.112;18.418;2023-03-23T04:15:51;17.10;;;15.60;;
24259;SDS011;12384;48.112;18.418;2023-03-23T04:18:18;20.40;;;18.47;;
24259;SDS011;12384;48.112;18.418;2023-03-23T04:20:48;20.40;;;18.50;;
24259;SDS011;12384;48.112;18.418;2023-03-23T04:23:20;20.27;;;17.37;;
24259;SDS011;12384;48.112;18.418;2023-03-23T04:25:49;19.20;;;17.50;;
24259;SDS011;12384;48.112;18.418;2023-03-23T04:28:18;18.67;;;16.97;;
24259;SDS011;12384;48.112;18.418;2023-03-23T04:31:12;19.10;;;17.30;;
24259;SDS011;12384;48.112;18.418;2023-03-23T04:33:45;20.37;;;18.43;;
24259;SDS011;12384;48.112;18.418;2023-03-23T04:36:22;20.60;;;18.67;;
24259;SDS011;12384;48.112;18.418;2023-03-23T04:38:59;20.83;;;18.83;;
24259;SDS011;12384;48.112;18.418;2023-03-23T04:41:29;19.60;;;17.80;;
24259;SDS011;12384;48.112;18.418;2023-03-23T04:44:19;18.10;;;16.60;;
24259;SDS011;12384;48.112;18.418;2023-03-23T04:47:09;19.47;;;17.77;;
24259;SDS011;12384;48.112;18.418;2023-03-23T04:49:43;20.57;;;18.43;;
24259;SDS011;12384;48.112;18.418;2023-03-23T04:52:31;18.77;;;17.27;;
24259;SDS011;12384;48.112;18.418;2023-03-23T04:55:05;17.00;;;15.60;;
24259;SDS011;12384;48.112;18.418;2023-03-23T04:57:34;19.50;;;17.90;;
24259;SDS011;12384;48.112;18.418;2023-03-23T05:00:27;19.03;;;17.47;;
24259;SDS011;12384;48.112;18.418;2023-03-23T05:02:56;18.00;;;16.50;;
24259;SDS011;12384;48.112;18.418;2023-03-23T05:05:27;18.10;;;16.60;;
24259;SDS011;12384;48.112;18.418;2023-03-23T05:07:58;17.63;;;16.17;;
24259;SDS011;12384;48.112;18.418;2023-03-23T05:10:30;18.30;;;16.67;;
24259;SDS011;12384;48.112;18.418;2023-03-23T05:13:04;19.47;;;17.67;;
24259;SDS011;12384;48.112;18.418;2023-03-23T05:15:31;18.53;;;16.93;;
24259;SDS011;12384;48.112;18.418;2023-03-23T05:18:00;18.77;;;17.17;;
24259;SDS011;12384;48.112;18.418;2023-03-23T05:20:29;19.27;;;17.43;;
24259;SDS011;12384;48.112;18.418;2023-03-23T05:23:02;18.33;;;16.63;;
24259;SDS011;12384;48.112;18.418;2023-03-23T05:25:35;17.93;;;16.40;;
24259;SDS011;12384;48.112;18.418;2023-03-23T05:28:25;17.70;;;16.20;;
24259;SDS011;12384;48.112;18.418;2023-03-23T05:30:56;17.07;;;15.57;;
24259;SDS011;12384;48.112;18.418;2023-03-23T05:33:28;16.07;;;14.77;;
24259;SDS011;12384;48.112;18.418;2023-03-23T05:36:15;17.83;;;16.37;;
24259;SDS011;12384;48.112;18.418;2023-03-23T05:39:01;16.90;;;15.53;;
24259;SDS011;12384;48.112;18.418;2023-03-23T05:41:50;17.90;;;16.37;;
24259;SDS011;12384;48.112;18.418;2023-03-23T05:44:18;17.23;;;15.83;;
24259;SDS011;12384;48.112;18.418;2023-03-23T05:46:50;17.60;;;16.10;;
24259;SDS011;12384;48.112;18.418;2023-03-23T05:49:18;16.57;;;15.17;;
24259;SDS011;12384;48.112;18.418;2023-03-23T05:51:46;16.80;;;15.40;;
24259;SDS011;12384;48.112;18.418;2023-03-23T05:54:16;17.07;;;15.57;;
24259;SDS011;12384;48.112;18.418;2023-03-23T05:56:46;17.93;;;16.43;;
24259;SDS011;12384;48.112;18.418;2023-03-23T05:59:41;17.47;;;15.93;;
24259;SDS011;12384;48.112;18.418;2023-03-23T06:02:14;18.40;;;16.63;;
24259;SDS011;12384;48.112;18.418;2023-03-23T06:04:42;16.07;;;14.77;;
24259;SDS011;12384;48.112;18.418;2023-03-23T06:07:26;16.83;;;15.33;;
24259;SDS011;12384;48.112;18.418;2023-03-23T06:10:01;16.67;;;15.17;;
24259;SDS011;12384;48.112;18.418;2023-03-23T06:12:36;15.53;;;14.30;;
24259;SDS011;12384;48.112;18.418;2023-03-23T06:15:16;16.43;;;15.13;;
24259;SDS011;12384;48.112;18.418;2023-03-23T06:17:59;16.90;;;15.60;;
24259;SDS011;12384;48.112;18.418;2023-03-23T06:20:38;15.10;;;13.90;;
24259;SDS011;12384;48.112;18.418;2023-03-23T06:23:32;15.40;;;14.10;;
24259;SDS011;12384;48.112;18.418;2023-03-23T06:26:01;16.07;;;14.87;;
24259;SDS011;12384;48.112;18.418;2023-03-23T06:28:31;16.10;;;14.90;;
24259;SDS011;12384;48.112;18.418;2023-03-23T06:31:01;16.77;;;15.47;;
24259;SDS011;12384;48.112;18.418;2023-03-23T06:33:33;16.07;;;14.77;;
24259;SDS011;12384;48.112;18.418;2023-03-23T06:36:30;15.77;;;14.57;;
24259;SDS011;12384;48.112;18.418;2023-03-23T06:39:12;15.57;;;14.17;;
24259;SDS011;12384;48.112;18.418;2023-03-23T06:42:02;14.23;;;13.23;;
24259;SDS011;12384;48.112;18.418;2023-03-23T06:44:37;15.03;;;13.87;;
24259;SDS011;12384;48.112;18.418;2023-03-23T06:47:06;14.57;;;13.47;;
24259;SDS011;12384;48.112;18.418;2023-03-23T06:49:37;15.00;;;13.83;;
24259;SDS011;12384;48.112;18.418;2023-03-23T06:52:20;15.27;;;13.87;;
24259;SDS011;12384;48.112;18.418;2023-03-23T06:54:49;13.67;;;12.63;;
24259;SDS011;12384;48.112;18.418;2023-03-23T06:57:18;12.40;;;11.40;;
24259;SDS011;12384;48.112;18.418;2023-03-23T06:59:47;12.97;;;11.97;;
24259;SDS011;12384;48.112;18.418;2023-03-23T07:02:16;14.23;;;13.10;;
24259;SDS011;12384;48.112;18.418;2023-03-23T07:04:48;14.03;;;12.93;;
24259;SDS011;12384;48.112;18.418;2023-03-23T07:07:20;14.83;;;13.73;;
24259;SDS011;12384;48.112;18.418;2023-03-23T07:09:53;13.83;;;12.73;;
24259;SDS011;12384;48.112;18.418;2023-03-23T07:12:23;13.90;;;12.80;;
24259;SDS011;12384;48.112;18.418;2023-03-23T07:14:51;12.70;;;11.80;;
24259;SDS011;12384;48.112;18.418;2023-03-23T07:17:20;13.37;;;12.37;;
24259;SDS011;12384;48.112;18.418;2023-03-23T07:20:01;14.97;;;13.67;;
24259;SDS011;12384;48.112;18.418;2023-03-23T07:22:30;15.60;;;14.40;;
24259;SDS011;12384;48.112;18.418;2023-03-23T07:25:06;14.17;;;13.17;;
24259;SDS011;12384;48.112;18.418;2023-03-23T07:27:44;13.90;;;13.00;;
24259;SDS011;12384;48.112;18.418;2023-03-23T07:30:14;14.57;;;13.47;;
24259;SDS011;12384;48.112;18.418;2023-03-23T07:32:43;13.63;;;12.73;;
24259;SDS011;12384;48.112;18.418;2023-03-23T07:35:11;13.37;;;12.37;;
24259;SDS011;12384;48.112;18.418;2023-03-23T07:37:56;14.33;;;13.23;;
24259;SDS011;12384;48.112;18.418;2023-03-23T07:40:24;13.73;;;12.63;;
24259;SDS011;12384;48.112;18.418;2023-03-23T07:42:59;14.07;;;13.00;;
24259;SDS011;12384;48.112;18.418;2023-03-23T07:46:00;13.87;;;12.80;;
24259;SDS011;12384;48.112;18.418;2023-03-23T07:48:39;12.50;;;11.60;;
24259;SDS011;12384;48.112;18.418;2023-03-23T07:51:07;13.65;;;12.63;;
24259;SDS011;12384;48.112;18.418;2023-03-23T07:53:35;15.15;;;13.95;;
24259;SDS011;12384;48.112;18.418;2023-03-23T07:56:20;14.77;;;13.68;;
24259;SDS011;12384;48.112;18.418;2023-03-23T07:58:48;13.93;;;12.93;;
24259;SDS011;12384;48.112;18.418;2023-03-23T08:01:18;12.70;;;11.80;;
24259;SDS011;12384;48.112;18.418;2023-03-23T08:04:06;13.45;;;12.40;;
24259;SDS011;12384;48.112;18.418;2023-03-23T08:06:51;12.85;;;11.95;;
24259;SDS011;12384;48.112;18.418;2023-03-23T08:09:50;13.17;;;12.07;;
24259;SDS011;12384;48.112;18.418;2023-03-23T08:12:27;12.60;;;11.70;;
24259;SDS011;12384;48.112;18.418;2023-03-23T08:15:21;13.15;;;12.15;;
24259;SDS011;12384;48.112;18.418;2023-03-23T08:18:05;12.50;;;11.70;;
24259;SDS011;12384;48.112;18.418;2023-03-23T08:20:34;14.20;;;13.00;;
24259;SDS011;12384;48.112;18.418;2023-03-23T08:23:18;14.13;;;12.93;;
24259;SDS011;12384;48.112;18.418;2023-03-23T08:26:06;13.32;;;12.32;;
24259;SDS011;12384;48.112;18.418;2023-03-23T08:28:50;13.40;;;12.40;;
24259;SDS011;12384;48.112;18.418;2023-03-23T08:31:20;12.95;;;12.05;;
24259;SDS011;12384;48.112;18.418;2023-03-23T08:34:23;13.95;;;12.85;;
24259;SDS011;12384;48.112;18.418;2023-03-23T08:37:27;12.03;;;11.13;;
24259;SDS011;12384;48.112;18.418;2023-03-23T08:40:13;11.50;;;10.70;;
24259;SDS011;12384;48.112;18.418;2023-03-23T08:52:36;12.65;;;11.75;;
24259;SDS011;12384;48.112;18.418;2023-03-23T08:55:26;13.10;;;12.10;;
24259;SDS011;12384;48.112;18.418;2023-03-23T08:58:19;12.57;;;11.68;;
24259;SDS011;12384;48.112;18.418;2023-03-23T09:01:08;11.73;;;10.93;;
24259;SDS011;12384;48.112;18.418;2023-03-23T09:03:42;11.53;;;10.57;;
24259;SDS011;12384;48.112;18.418;2023-03-23T09:06:30;14.93;;;13.50;;
24259;SDS011;12384;48.112;18.418;2023-03-23T09:09:00;14.37;;;13.07;;
24259;SDS011;12384;48.112;18.418;2023-03-23T09:11:32;13.03;;;12.03;;
24259;SDS011;12384;48.112;18.418;2023-03-23T09:14:00;13.57;;;12.47;;
24259;SDS011;12384;48.112;18.418;2023-03-23T09:16:28;14.17;;;13.07;;
24259;SDS011;12384;48.112;18.418;2023-03-23T09:18:56;14.00;;;12.87;;
24259;SDS011;12384;48.112;18.418;2023-03-23T09:21:24;13.97;;;12.87;;
24259;SDS011;12384;48.112;18.418;2023-03-23T09:23:52;13.17;;;12.07;;
24259;SDS011;12384;48.112;18.418;2023-03-23T09:26:25;11.87;;;10.97;;
24259;SDS011;12384;48.112;18.418;2023-03-23T09:28:54;12.77;;;11.73;;
24259;SDS011;12384;48.112;18.418;2023-03-23T09:31:23;12.27;;;11.27;;
24259;SDS011;12384;48.112;18.418;2023-03-23T09:33:53;13.63;;;12.53;;
24259;SDS011;12384;48.112;18.418;2023-03-23T09:36:22;12.17;;;11.27;;
24259;SDS011;12384;48.112;18.418;2023-03-23T09:38:51;11.80;;;11.00;;
24259;SDS011;12384;48.112;18.418;2023-03-23T09:41:28;12.17;;;11.37;;
24259;SDS011;12384;48.112;18.418;2023-03-23T09:44:11;12.00;;;11.20;;
24259;SDS011;12384;48.112;18.418;2023-03-23T09:46:50;12.47;;;11.57;;
24259;SDS011;12384;48.112;18.418;2023-03-23T09:49:25;12.27;;;11.47;;
24259;SDS011;12384;48.112;18.418;2023-03-23T09:51:59;11.93;;;11.13;;
24259;SDS011;12384;48.112;18.418;2023-03-23T09:54:30;13.27;;;12.37;;
24259;SDS011;12384;48.112;18.418;2023-03-23T09:57:03;12.73;;;11.83;;
24259;SDS011;12384;48.112;18.418;2023-03-23T09:59:37;12.43;;;11.53;;
24259;SDS011;12384;48.112;18.418;2023-03-23T10:02:11;12.33;;;11.53;;
24259;SDS011;12384;48.112;18.418;2023-03-23T10:04:43;12.40;;;11.37;;
24259;SDS011;12384;48.112;18.418;2023-03-23T10:07:13;12.47;;;11.57;;
24259;SDS011;12384;48.112;18.418;2023-03-23T10:09:42;13.60;;;12.50;;
24259;SDS011;12384;48.112;18.418;2023-03-23T10:12:19;12.83;;;11.90;;
24259;SDS011;12384;48.112;18.418;2023-03-23T10:14:55;12.33;;;11.33;;
24259;SDS011;12384;48.112;18.418;2023-03-23T10:17:33;12.20;;;11.03;;
24259;SDS011;12384;48.112;18.418;2023-03-23T10:20:13;11.10;;;10.30;;
24259;SDS011;12384;48.112;18.418;2023-03-23T10:22:58;11.10;;;10.30;;
24259;SDS011;12384;48.112;18.418;2023-03-23T10:25:34;10.37;;;9.67;;
24259;SDS011;12384;48.112;18.418;2023-03-23T10:28:06;9.73;;;9.00;;
24259;SDS011;12384;48.112;18.418;2023-03-23T10:30:39;10.80;;;10.00;;
24259;SDS011;12384;48.112;18.418;2023-03-23T10:33:11;11.30;;;10.50;;
24259;SDS011;12384;48.112;18.418;2023-03-23T10:35:43;10.33;;;9.63;;
24259;SDS011;12384;48.112;18.418;2023-03-23T10:38:17;10.50;;;9.80;;
24259;SDS011;12384;48.112;18.418;2023-03-23T10:40:48;10.30;;;9.40;;
24259;SDS011;12384;48.112;18.418;2023-03-23T10:43:20;12.07;;;11.27;;
24259;SDS011;12384;48.112;18.418;2023-03-23T10:45:49;11.13;;;10.33;;
24259;SDS011;12384;48.112;18.418;2023-03-23T10:48:25;10.73;;;9.80;;
24259;SDS011;12384;48.112;18.418;2023-03-23T10:50:58;10.45;;;9.75;;
24259;SDS011;12384;48.112;18.418;2023-03-23T10:53:29;10.23;;;9.60;;
24259;SDS011;12384;48.112;18.418;2023-03-23T10:55:59;9.52;;;8.93;;
24259;SDS011;12384;48.112;18.418;2023-03-23T10:58:29;10.85;;;9.95;;
24259;SDS011;12384;48.112;18.418;2023-03-23T11:00:58;11.25;;;10.40;;
24259;SDS011;12384;48.112;18.418;2023-03-23T11:03:33;10.20;;;9.50;;
24259;SDS011;12384;48.112;18.418;2023-03-23T11:06:06;11.25;;;10.43;;
24259;SDS011;12384;48.112;18.418;2023-03-23T11:08:37;10.00;;;9.40;;
24259;SDS011;12384;48.112;18.418;2023-03-23T11:11:15;9.18;;;8.68;;
24259;SDS011;12384;48.112;18.418;2023-03-23T11:13:46;9.70;;;9.10;;
24259;SDS011;12384;48.112;18.418;2023-03-23T11:16:26;9.43;;;8.75;;
24259;SDS011;12384;48.112;18.418;2023-03-23T11:18:56;10.27;;;9.63;;
24259;SDS011;12384;48.112;18.418;2023-03-23T11:21:25;9.52;;;8.95;;
24259;SDS011;12384;48.112;18.418;2023-03-23T11:23:54;8.70;;;8.20;;
24259;SDS011;12384;48.112;18.418;2023-03-23T11:26:24;8.43;;;7.80;;
24259;SDS011;12384;48.112;18.418;2023-03-23T11:28:57;8.70;;;8.20;;
24259;SDS011;12384;48.112;18.418;2023-03-23T11:31:27;9.52;;;8.82;;
24259;SDS011;12384;48.112;18.418;2023-03-23T11:33:57;9.05;;;8.55;;
24259;SDS011;12384;48.112;18.418;2023-03-23T11:36:35;10.40;;;9.45;;
24259;SDS011;12384;48.112;18.418;2023-03-23T11:39:18;9.57;;;8.82;;
24259;SDS011;12384;48.112;18.418;2023-03-23T11:41:47;9.05;;;8.45;;
24259;SDS011;12384;48.112;18.418;2023-03-23T11:44:16;9.25;;;8.75;;
24259;SDS011;12384;48.112;18.418;2023-03-23T11:46:47;9.60;;;8.80;;
24259;SDS011;12384;48.112;18.418;2023-03-23T11:49:26;9.80;;;9.20;;
24259;SDS011;12384;48.112;18.418;2023-03-23T11:52:03;9.30;;;8.80;;
24259;SDS011;12384;48.112;18.418;2023-03-23T11:54:38;9.27;;;8.68;;
24259;SDS011;12384;48.112;18.418;2023-03-23T11:57:10;10.18;;;9.45;;
24259;SDS011;12384;48.112;18.418;2023-03-23T11:59:41;9.88;;;9.27;;
24259;SDS011;12384;48.112;18.418;2023-03-23T12:05:31;9.80;;;8.93;;
24259;SDS011;12384;48.112;18.418;2023-03-23T12:08:11;10.13;;;9.45;;
24259;SDS011;12384;48.112;18.418;2023-03-23T12:10:58;9.88;;;9.35;;
24259;SDS011;12384;48.112;18.418;2023-03-23T12:13:36;9.40;;;8.82;;
24259;SDS011;12384;48.112;18.418;2023-03-23T12:16:25;9.05;;;8.35;;
24259;SDS011;12384;48.112;18.418;2023-03-23T12:19:02;9.00;;;8.50;;
24259;SDS011;12384;48.112;18.418;2023-03-23T12:21:38;8.50;;;8.00;;
24259;SDS011;12384;48.112;18.418;2023-03-23T12:24:13;9.15;;;8.63;;
24259;SDS011;12384;48.112;18.418;2023-03-23T12:26:52;9.57;;;8.90;;
24259;SDS011;12384;48.112;18.418;2023-03-23T12:29:29;9.77;;;9.18;;
24259;SDS011;12384;48.112;18.418;2023-03-23T12:32:25;11.40;;;10.60;;
24259;SDS011;12384;48.112;18.418;2023-03-23T12:35:02;9.57;;;9.02;;
24259;SDS011;12384;48.112;18.418;2023-03-23T12:37:46;9.75;;;9.15;;
24259;SDS011;12384;48.112;18.418;2023-03-23T12:40:27;9.23;;;8.73;;
24259;SDS011;12384;48.112;18.418;2023-03-23T12:43:13;11.38;;;10.52;;
24259;SDS011;12384;48.112;18.418;2023-03-23T12:45:50;9.75;;;9.15;;
24259;SDS011;12384;48.112;18.418;2023-03-23T12:48:27;10.90;;;10.30;;
24259;SDS011;12384;48.112;18.418;2023-03-23T12:51:03;11.15;;;10.50;;
24259;SDS011;12384;48.112;18.418;2023-03-23T12:53:38;11.10;;;10.40;;
24259;SDS011;12384;48.112;18.418;2023-03-23T12:56:14;9.70;;;9.10;;
24259;SDS011;12384;48.112;18.418;2023-03-23T12:58:46;9.27;;;8.63;;
24259;SDS011;12384;48.112;18.418;2023-03-23T13:01:18;9.80;;;9.20;;
24259;SDS011;12384;48.112;18.418;2023-03-23T13:03:52;9.77;;;9.18;;
24259;SDS011;12384;48.112;18.418;2023-03-23T13:06:26;9.73;;;8.98;;
24259;SDS011;12384;48.112;18.418;2023-03-23T13:08:58;9.55;;;8.80;;
24259;SDS011;12384;48.112;18.418;2023-03-23T13:11:32;10.23;;;9.55;;
24259;SDS011;12384;48.112;18.418;2023-03-23T13:14:03;10.10;;;9.30;;
24259;SDS011;12384;48.112;18.418;2023-03-23T13:16:39;10.98;;;9.88;;
24259;SDS011;12384;48.112;18.418;2023-03-23T13:19:19;10.07;;;9.48;;
24259;SDS011;12384;48.112;18.418;2023-03-23T13:21:53;10.23;;;9.52;;
24259;SDS011;12384;48.112;18.418;2023-03-23T13:24:29;10.60;;;9.80;;
24259;SDS011;12384;48.112;18.418;2023-03-23T13:27:00;10.30;;;9.50;;
24259;SDS011;12384;48.112;18.418;2023-03-23T13:29:27;10.32;;;9.73;;
24259;SDS011;12384;48.112;18.418;2023-03-23T13:32:06;10.02;;;9.40;;
24259;SDS011;12384;48.112;18.418;2023-03-23T13:34:40;10.95;;;10.25;;
24259;SDS011;12384;48.112;18.418;2023-03-23T13:37:10;10.45;;;9.85;;
24259;SDS011;12384;48.112;18.418;2023-03-23T13:39:50;10.15;;;9.55;;
24259;SDS011;12384;48.112;18.418;2023-03-23T13:42:22;9.50;;;8.90;;
24259;SDS011;12384;48.112;18.418;2023-03-23T13:47:46;9.85;;;9.02;;
24259;SDS011;12384;48.112;18.418;2023-03-23T13:50:26;10.10;;;9.35;;
24259;SDS011;12384;48.112;18.418;2023-03-23T13:52:57;9.43;;;8.82;;
24259;SDS011;12384;48.112;18.418;2023-03-23T13:55:31;10.95;;;10.02;;
24259;SDS011;12384;48.112;18.418;2023-03-23T13:58:10;10.25;;;9.50;;
24259;SDS011;12384;48.112;18.418;2023-03-23T14:00:48;10.80;;;9.95;;
24259;SDS011;12384;48.112;18.418;2023-03-23T14:03:35;11.23;;;10.25;;
24259;SDS011;12384;48.112;18.418;2023-03-23T14:06:10;10.35;;;9.65;;
24259;SDS011;12384;48.112;18.418;2023-03-23T14:09:03;9.65;;;9.05;;
24259;SDS011;12384;48.112;18.418;2023-03-23T14:11:44;10.23;;;9.52;;
24259;SDS011;12384;48.112;18.418;2023-03-23T14:14:17;10.23;;;9.40;;
24259;SDS011;12384;48.112;18.418;2023-03-23T14:16:51;10.18;;;9.57;;
24259;SDS011;12384;48.112;18.418;2023-03-23T14:19:21;10.48;;;9.45;;
24259;SDS011;12384;48.112;18.418;2023-03-23T14:21:52;10.18;;;9.38;;
24259;SDS011;12384;48.112;18.418;2023-03-23T14:24:22;9.20;;;8.52;;
24259;SDS011;12384;48.112;18.418;2023-03-23T14:26:52;9.85;;;9.20;;
24259;SDS011;12384;48.112;18.418;2023-03-23T14:29:28;10.48;;;9.77;;
24259;SDS011;12384;48.112;18.418;2023-03-23T14:31:56;9.52;;;8.93;;
24259;SDS011;12384;48.112;18.418;2023-03-23T14:34:26;10.02;;;9.30;;
24259;SDS011;12384;48.112;18.418;2023-03-23T14:36:57;10.18;;;9.57;;
24259;SDS011;12384;48.112;18.418;2023-03-23T14:39:26;10.05;;;9.45;;
24259;SDS011;12384;48.112;18.418;2023-03-23T14:41:56;9.23;;;8.73;;
24259;SDS011;12384;48.112;18.418;2023-03-23T14:44:29;9.70;;;9.10;;
24259;SDS011;12384;48.112;18.418;2023-03-23T14:47:01;10.13;;;9.43;;
24259;SDS011;12384;48.112;18.418;2023-03-23T14:49:31;9.98;;;9.27;;
24259;SDS011;12384;48.112;18.418;2023-03-23T14:52:07;9.45;;;8.75;;
24259;SDS011;12384;48.112;18.418;2023-03-23T14:54:37;9.97;;;9.20;;
24259;SDS011;12384;48.112;18.418;2023-03-23T14:57:11;9.50;;;8.90;;
24259;SDS011;12384;48.112;18.418;2023-03-23T14:59:40;9.60;;;9.07;;
24259;SDS011;12384;48.112;18.418;2023-03-23T15:02:12;9.63;;;9.07;;
24259;SDS011;12384;48.112;18.418;2023-03-23T15:04:40;9.40;;;8.90;;
24259;SDS011;12384;48.112;18.418;2023-03-23T15:07:11;9.30;;;8.80;;
24259;SDS011;12384;48.112;18.418;2023-03-23T15:09:41;10.40;;;9.68;;
24259;SDS011;12384;48.112;18.418;2023-03-23T15:12:13;10.25;;;9.65;;
24259;SDS011;12384;48.112;18.418;2023-03-23T15:14:49;10.00;;;9.40;;
24259;SDS011;12384;48.112;18.418;2023-03-23T15:17:24;10.18;;;9.57;;
24259;SDS011;12384;48.112;18.418;2023-03-23T15:19:54;9.63;;;9.03;;
24259;SDS011;12384;48.112;18.418;2023-03-23T15:22:26;10.53;;;9.93;;